Terminal Aerodrome Forecast
Issued by NWS North Platte, NE

Home | Current Version | Previous Version | Text Only | Print | Product List | Glossary On
Versions: 1 2 3 4 5 6 7 8 9 10 11 12 13 14 15 16 17 18 19 20 21 22 23 24
000
FTUS43 KLBF 202320
TAFLBF
TAF
KLBF 202320Z 2100/2124 12010KT P6SM FEW250
     FM210100 12006KT P6SM SKC
     FM210800 VRB03KT P6SM SCT120 BKN200
     FM211800 18006KT P6SM BKN150=

USA.gov is the U.S. government's official web portal to all federal, state and local government web resources and services.